Aviation Digital Data Service (ADDS)

Output produced by METARs form (0505 UTC 21 January 2019)
found at http://www.aviationweather.gov/metar/data/
 
METAR text: VVCI 210430Z 02006KT 9999 FEW020 OVC040 16/12 Q1024 NOSIG
Conditions at: VVCI (CAT VI , VN) observed 0430 UTC 21 January 2019
Temperature: 16.0°C (61°F)
Dewpoint: 12.0°C (54°F) [RH = 77%]
Pressure (altimeter): 30.24 inches Hg (1024.0 mb)
Winds: from the NNE (20 degrees) at 7 MPH (6 knots; 3.1 m/s)
Visibility: 6 or more miles (10+ km)
Ceiling: 4000 feet AGL
Clouds: few clouds at 2000 feet AGL
overcast cloud deck at 4000 feet AGL
Weather: no significant weather observed at this time

METAR text: VVCI 210400Z 01009KT 9999 FEW020 OVC040 16/12 Q1024 NOSIG
Conditions at: VVCI (CAT VI , VN) observed 0400 UTC 21 January 2019
Temperature: 16.0°C (61°F)
Dewpoint: 12.0°C (54°F) [RH = 77%]
Pressure (altimeter): 30.24 inches Hg (1024.0 mb)
Winds: from the N (10 degrees) at 10 MPH (9 knots; 4.6 m/s)
Visibility: 6 or more miles (10+ km)
Ceiling: 4000 feet AGL
Clouds: few clouds at 2000 feet AGL
overcast cloud deck at 4000 feet AGL
Weather: no significant weather observed at this time

METAR text: VVCI 210330Z 36009KT 9999 FEW019 OVC035 17/12 Q1024 NOSIG
Conditions at: VVCI (CAT VI , VN) observed 0330 UTC 21 January 2019
Temperature: 17.0°C (63°F)
Dewpoint: 12.0°C (54°F) [RH = 72%]
Pressure (altimeter): 30.24 inches Hg (1024.0 mb)
Winds: from the N (360 degrees) at 10 MPH (9 knots; 4.6 m/s)
Visibility: 6 or more miles (10+ km)
Ceiling: 3500 feet AGL
Clouds: few clouds at 1900 feet AGL
overcast cloud deck at 3500 feet AGL
Weather: no significant weather observed at this time

METAR text: VVCI 210300Z 01007KT 9999 OVC036 17/13 Q1024 NOSIG
Conditions at: VVCI (CAT VI , VN) observed 0300 UTC 21 January 2019
Temperature: 17.0°C (63°F)
Dewpoint: 13.0°C (55°F) [RH = 77%]
Pressure (altimeter): 30.24 inches Hg (1024.0 mb)
Winds: from the N (10 degrees) at 8 MPH (7 knots; 3.6 m/s)
Visibility: 6 or more miles (10+ km)
Ceiling: 3600 feet AGL
Clouds: overcast cloud deck at 3600 feet AGL
Weather: no significant weather observed at this time

METAR text: VVCI 210230Z 01009KT 9999 OVC035 17/13 Q1024 NOSIG
Conditions at: VVCI (CAT VI , VN) observed 0230 UTC 21 January 2019
Temperature: 17.0°C (63°F)
Dewpoint: 13.0°C (55°F) [RH = 77%]
Pressure (altimeter): 30.24 inches Hg (1024.0 mb)
Winds: from the N (10 degrees) at 10 MPH (9 knots; 4.6 m/s)
Visibility: 6 or more miles (10+ km)
Ceiling: 3500 feet AGL
Clouds: overcast cloud deck at 3500 feet AGL
Weather: no significant weather observed at this time

METAR text: VVCI 210200Z 02006KT 9999 BKN037 17/13 Q1023 NOSIG
Conditions at: VVCI (CAT VI , VN) observed 0200 UTC 21 January 2019
Temperature: 17.0°C (63°F)
Dewpoint: 13.0°C (55°F) [RH = 77%]
Pressure (altimeter): 30.21 inches Hg (1023.0 mb)
Winds: from the NNE (20 degrees) at 7 MPH (6 knots; 3.1 m/s)
Visibility: 6 or more miles (10+ km)
Ceiling: 3700 feet AGL
Clouds: broken clouds at 3700 feet AGL
Weather: no significant weather observed at this time

METAR text: VVCI 210130Z 03008KT 9999 BKN032 17/13 Q1023 NOSIG
Conditions at: VVCI (CAT VI , VN) observed 0130 UTC 21 January 2019
Temperature: 17.0°C (63°F)
Dewpoint: 13.0°C (55°F) [RH = 77%]
Pressure (altimeter): 30.21 inches Hg (1023.0 mb)
Winds: from the NNE (30 degrees) at 9 MPH (8 knots; 4.1 m/s)
Visibility: 6 or more miles (10+ km)
Ceiling: 3200 feet AGL
Clouds: broken clouds at 3200 feet AGL
Weather: no significant weather observed at this time

METAR text: VVCI 210100Z 03008KT 9999 BKN032 17/13 Q1022 NOSIG
Conditions at: VVCI (CAT VI , VN) observed 0100 UTC 21 January 2019
Temperature: 17.0°C (63°F)
Dewpoint: 13.0°C (55°F) [RH = 77%]
Pressure (altimeter): 30.18 inches Hg (1022.0 mb)
Winds: from the NNE (30 degrees) at 9 MPH (8 knots; 4.1 m/s)
Visibility: 6 or more miles (10+ km)
Ceiling: 3200 feet AGL
Clouds: broken clouds at 3200 feet AGL
Weather: no significant weather observed at this time

METAR text: VVCI 210030Z 03008KT 9999 BKN032 17/13 Q1022 NOSIG
Conditions at: VVCI (CAT VI , VN) observed 0030 UTC 21 January 2019
Temperature: 17.0°C (63°F)
Dewpoint: 13.0°C (55°F) [RH = 77%]
Pressure (altimeter): 30.18 inches Hg (1022.0 mb)
Winds: from the NNE (30 degrees) at 9 MPH (8 knots; 4.1 m/s)
Visibility: 6 or more miles (10+ km)
Ceiling: 3200 feet AGL
Clouds: broken clouds at 3200 feet AGL
Weather: no significant weather observed at this time

METAR text: VVCI 210000Z 04007KT 9999 BKN030 17/14 Q1021 NOSIG
Conditions at: VVCI (CAT VI , VN) observed 0000 UTC 21 January 2019
Temperature: 17.0°C (63°F)
Dewpoint: 14.0°C (57°F) [RH = 82%]
Pressure (altimeter): 30.15 inches Hg (1021.0 mb)
Winds: from the NE (40 degrees) at 8 MPH (7 knots; 3.6 m/s)
Visibility: 6 or more miles (10+ km)
Ceiling: 3000 feet AGL
Clouds: broken clouds at 3000 feet AGL
Weather: no significant weather observed at this time

METAR text: VVCI 202330Z 04007KT 9999 FEW017 BKN035 17/14 Q1021 NOSIG
Conditions at: VVCI (CAT VI , VN) observed 2330 UTC 20 January 2019
Temperature: 17.0°C (63°F)
Dewpoint: 14.0°C (57°F) [RH = 82%]
Pressure (altimeter): 30.15 inches Hg (1021.0 mb)
Winds: from the NE (40 degrees) at 8 MPH (7 knots; 3.6 m/s)
Visibility: 6 or more miles (10+ km)
Ceiling: 3500 feet AGL
Clouds: few clouds at 1700 feet AGL
broken clouds at 3500 feet AGL
Weather: no significant weather observed at this time

METAR text: VVCI 202300Z 05007KT 9999 FEW021 BKN035 18/14 Q1020 NOSIG
Conditions at: VVCI (CAT VI , VN) observed 2300 UTC 20 January 2019
Temperature: 18.0°C (64°F)
Dewpoint: 14.0°C (57°F) [RH = 77%]
Pressure (altimeter): 30.12 inches Hg (1020.0 mb)
Winds: from the NE (50 degrees) at 8 MPH (7 knots; 3.6 m/s)
Visibility: 6 or more miles (10+ km)
Ceiling: 3500 feet AGL
Clouds: few clouds at 2100 feet AGL
broken clouds at 3500 feet AGL
Weather: no significant weather observed at this time

METAR text: VVCI 202230Z 05006KT 9999 FEW021 BKN035 18/15 Q1020 NOSIG
Conditions at: VVCI (CAT VI , VN) observed 2230 UTC 20 January 2019
Temperature: 18.0°C (64°F)
Dewpoint: 15.0°C (59°F) [RH = 83%]
Pressure (altimeter): 30.12 inches Hg (1020.0 mb)
Winds: from the NE (50 degrees) at 7 MPH (6 knots; 3.1 m/s)
Visibility: 6 or more miles (10+ km)
Ceiling: 3500 feet AGL
Clouds: few clouds at 2100 feet AGL
broken clouds at 3500 feet AGL
Weather: no significant weather observed at this time

METAR text: VVCI 202200Z 06004KT 9999 FEW021 BKN035 18/16 Q1020 NOSIG
Conditions at: VVCI (CAT VI , VN) observed 2200 UTC 20 January 2019
Temperature: 18.0°C (64°F)
Dewpoint: 16.0°C (61°F) [RH = 88%]
Pressure (altimeter): 30.12 inches Hg (1020.0 mb)
Winds: from the ENE (60 degrees) at 5 MPH (4 knots; 2.1 m/s)
Visibility: 6 or more miles (10+ km)
Ceiling: 3500 feet AGL
Clouds: few clouds at 2100 feet AGL
broken clouds at 3500 feet AGL
Weather: no significant weather observed at this time

METAR text: VVCI 202130Z 05004KT 9999 FEW017 BKN035 18/16 Q1020 NOSIG
Conditions at: VVCI (CAT VI , VN) observed 2130 UTC 20 January 2019
Temperature: 18.0°C (64°F)
Dewpoint: 16.0°C (61°F) [RH = 88%]
Pressure (altimeter): 30.12 inches Hg (1020.0 mb)
Winds: from the NE (50 degrees) at 5 MPH (4 knots; 2.1 m/s)
Visibility: 6 or more miles (10+ km)
Ceiling: 3500 feet AGL
Clouds: few clouds at 1700 feet AGL
broken clouds at 3500 feet AGL
Weather: no significant weather observed at this time

METAR text: VVCI 202100Z 06006KT 9999 SCT015 OVC035 18/17 Q1019 NOSIG
Conditions at: VVCI (CAT VI , VN) observed 2100 UTC 20 January 2019
Temperature: 18.0°C (64°F)
Dewpoint: 17.0°C (63°F) [RH = 94%]
Pressure (altimeter): 30.09 inches Hg (1019.0 mb)
Winds: from the ENE (60 degrees) at 7 MPH (6 knots; 3.1 m/s)
Visibility: 6 or more miles (10+ km)
Ceiling: 3500 feet AGL
Clouds: scattered clouds at 1500 feet AGL
overcast cloud deck at 3500 feet AGL
Weather: no significant weather observed at this time

METAR text: VVCI 202030Z 06006KT 9999 SCT015 OVC034 18/17 Q1019 NOSIG
Conditions at: VVCI (CAT VI , VN) observed 2030 UTC 20 January 2019
Temperature: 18.0°C (64°F)
Dewpoint: 17.0°C (63°F) [RH = 94%]
Pressure (altimeter): 30.09 inches Hg (1019.0 mb)
Winds: from the ENE (60 degrees) at 7 MPH (6 knots; 3.1 m/s)
Visibility: 6 or more miles (10+ km)
Ceiling: 3400 feet AGL
Clouds: scattered clouds at 1500 feet AGL
overcast cloud deck at 3400 feet AGL
Weather: no significant weather observed at this time

METAR text: VVCI 202000Z 07008KT 9999 BKN014 OVC026 18/17 Q1019 NOSIG
Conditions at: VVCI (CAT VI , VN) observed 2000 UTC 20 January 2019
Temperature: 18.0°C (64°F)
Dewpoint: 17.0°C (63°F) [RH = 94%]
Pressure (altimeter): 30.09 inches Hg (1019.0 mb)
Winds: from the ENE (70 degrees) at 9 MPH (8 knots; 4.1 m/s)
Visibility: 6 or more miles (10+ km)
Ceiling: 1400 feet AGL
Clouds: broken clouds at 1400 feet AGL
overcast cloud deck at 2600 feet AGL
Weather: no significant weather observed at this time

METAR text: VVCI 201930Z 08007KT 9999 BKN014 OVC026 19/17 Q1019 NOSIG
Conditions at: VVCI (CAT VI , VN) observed 1930 UTC 20 January 2019
Temperature: 19.0°C (66°F)
Dewpoint: 17.0°C (63°F) [RH = 88%]
Pressure (altimeter): 30.09 inches Hg (1019.0 mb)
Winds: from the E (80 degrees) at 8 MPH (7 knots; 3.6 m/s)
Visibility: 6 or more miles (10+ km)
Ceiling: 1400 feet AGL
Clouds: broken clouds at 1400 feet AGL
overcast cloud deck at 2600 feet AGL
Weather: no significant weather observed at this time

METAR text: VVCI 201900Z 08008KT 9999 SCT014 BKN022 19/17 Q1019 NOSIG
Conditions at: VVCI (CAT VI , VN) observed 1900 UTC 20 January 2019
Temperature: 19.0°C (66°F)
Dewpoint: 17.0°C (63°F) [RH = 88%]
Pressure (altimeter): 30.09 inches Hg (1019.0 mb)
Winds: from the E (80 degrees) at 9 MPH (8 knots; 4.1 m/s)
Visibility: 6 or more miles (10+ km)
Ceiling: 2200 feet AGL
Clouds: scattered clouds at 1400 feet AGL
broken clouds at 2200 feet AGL
Weather: no significant weather observed at this time

METAR text: VVCI 201830Z 12003KT 9999 SCT017 BKN032 20/18 Q1019 NOSIG
Conditions at: VVCI (CAT VI , VN) observed 1830 UTC 20 January 2019
Temperature: 20.0°C (68°F)
Dewpoint: 18.0°C (64°F) [RH = 88%]
Pressure (altimeter): 30.09 inches Hg (1019.0 mb)
Winds: from the ESE (120 degrees) at 3 MPH (3 knots; 1.5 m/s)
Visibility: 6 or more miles (10+ km)
Ceiling: 3200 feet AGL
Clouds: scattered clouds at 1700 feet AGL
broken clouds at 3200 feet AGL
Weather: no significant weather observed at this time

METAR text: VVCI 201800Z 11004KT 9999 SCT017 BKN032 20/18 Q1019 NOSIG
Conditions at: VVCI (CAT VI , VN) observed 1800 UTC 20 January 2019
Temperature: 20.0°C (68°F)
Dewpoint: 18.0°C (64°F) [RH = 88%]
Pressure (altimeter): 30.09 inches Hg (1019.0 mb)
Winds: from the ESE (110 degrees) at 5 MPH (4 knots; 2.1 m/s)
Visibility: 6 or more miles (10+ km)
Ceiling: 3200 feet AGL
Clouds: scattered clouds at 1700 feet AGL
broken clouds at 3200 feet AGL
Weather: no significant weather observed at this time

METAR text: VVCI 201730Z 07005KT 9999 FEW013 BKN042 20/18 Q1019 NOSIG
Conditions at: VVCI (CAT VI , VN) observed 1730 UTC 20 January 2019
Temperature: 20.0°C (68°F)
Dewpoint: 18.0°C (64°F) [RH = 88%]
Pressure (altimeter): 30.09 inches Hg (1019.0 mb)
Winds: from the ENE (70 degrees) at 6 MPH (5 knots; 2.6 m/s)
Visibility: 6 or more miles (10+ km)
Ceiling: 4200 feet AGL
Clouds: few clouds at 1300 feet AGL
broken clouds at 4200 feet AGL
Weather: no significant weather observed at this time

METAR text: VVCI 201700Z 08004KT 9999 FEW017 BKN042 20/18 Q1019 NOSIG
Conditions at: VVCI (CAT VI , VN) observed 1700 UTC 20 January 2019
Temperature: 20.0°C (68°F)
Dewpoint: 18.0°C (64°F) [RH = 88%]
Pressure (altimeter): 30.09 inches Hg (1019.0 mb)
Winds: from the E (80 degrees) at 5 MPH (4 knots; 2.1 m/s)
Visibility: 6 or more miles (10+ km)
Ceiling: 4200 feet AGL
Clouds: few clouds at 1700 feet AGL
broken clouds at 4200 feet AGL
Weather: no significant weather observed at this time

METAR text: VVCI 201630Z 09005KT 9999 BKN038 20/18 Q1019 NOSIG
Conditions at: VVCI (CAT VI , VN) observed 1630 UTC 20 January 2019
Temperature: 20.0°C (68°F)
Dewpoint: 18.0°C (64°F) [RH = 88%]
Pressure (altimeter): 30.09 inches Hg (1019.0 mb)
Winds: from the E (90 degrees) at 6 MPH (5 knots; 2.6 m/s)
Visibility: 6 or more miles (10+ km)
Ceiling: 3800 feet AGL
Clouds: broken clouds at 3800 feet AGL
Weather: no significant weather observed at this time

METAR text: VVCI 201600Z 08006KT 9999 BKN036 20/18 Q1019 NOSIG
Conditions at: VVCI (CAT VI , VN) observed 1600 UTC 20 January 2019
Temperature: 20.0°C (68°F)
Dewpoint: 18.0°C (64°F) [RH = 88%]
Pressure (altimeter): 30.09 inches Hg (1019.0 mb)
Winds: from the E (80 degrees) at 7 MPH (6 knots; 3.1 m/s)
Visibility: 6 or more miles (10+ km)
Ceiling: 3600 feet AGL
Clouds: broken clouds at 3600 feet AGL
Weather: no significant weather observed at this time

METAR text: VVCI 201530Z 09005KT 9999 FEW014 BKN035 20/19 Q1019 NOSIG
Conditions at: VVCI (CAT VI , VN) observed 1530 UTC 20 January 2019
Temperature: 20.0°C (68°F)
Dewpoint: 19.0°C (66°F) [RH = 94%]
Pressure (altimeter): 30.09 inches Hg (1019.0 mb)
Winds: from the E (90 degrees) at 6 MPH (5 knots; 2.6 m/s)
Visibility: 6 or more miles (10+ km)
Ceiling: 3500 feet AGL
Clouds: few clouds at 1400 feet AGL
broken clouds at 3500 feet AGL
Weather: no significant weather observed at this time

METAR text: VVCI 201500Z 08005KT 9999 FEW014 BKN043 20/19 Q1019 NOSIG
Conditions at: VVCI (CAT VI , VN) observed 1500 UTC 20 January 2019
Temperature: 20.0°C (68°F)
Dewpoint: 19.0°C (66°F) [RH = 94%]
Pressure (altimeter): 30.09 inches Hg (1019.0 mb)
Winds: from the E (80 degrees) at 6 MPH (5 knots; 2.6 m/s)
Visibility: 6 or more miles (10+ km)
Ceiling: 4300 feet AGL
Clouds: few clouds at 1400 feet AGL
broken clouds at 4300 feet AGL
Weather: no significant weather observed at this time

METAR text: VVCI 201430Z 06003KT 9999 BKN033 21/19 Q1019 NOSIG
Conditions at: VVCI (CAT VI , VN) observed 1430 UTC 20 January 2019
Temperature: 21.0°C (70°F)
Dewpoint: 19.0°C (66°F) [RH = 88%]
Pressure (altimeter): 30.09 inches Hg (1019.0 mb)
Winds: from the ENE (60 degrees) at 3 MPH (3 knots; 1.5 m/s)
Visibility: 6 or more miles (10+ km)
Ceiling: 3300 feet AGL
Clouds: broken clouds at 3300 feet AGL
Weather: no significant weather observed at this time

METAR text: VVCI 201400Z VRB02KT 9999 BKN033 21/19 Q1019 NOSIG
Conditions at: VVCI (CAT VI , VN) observed 1400 UTC 20 January 2019
Temperature: 21.0°C (70°F)
Dewpoint: 19.0°C (66°F) [RH = 88%]
Pressure (altimeter): 30.09 inches Hg (1019.0 mb)
Winds: variable direction winds at 2 MPH (2 knots; 1.0 m/s)
Visibility: 6 or more miles (10+ km)
Ceiling: 3300 feet AGL
Clouds: broken clouds at 3300 feet AGL
Weather: no significant weather observed at this time

METAR text: VVCI 201330Z 07002KT 9999 OVC034 21/19 Q1018 NOSIG
Conditions at: VVCI (CAT VI , VN) observed 1330 UTC 20 January 2019
Temperature: 21.0°C (70°F)
Dewpoint: 19.0°C (66°F) [RH = 88%]
Pressure (altimeter): 30.06 inches Hg (1018.0 mb)
Winds: from the ENE (70 degrees) at 2 MPH (2 knots; 1.0 m/s)
Visibility: 6 or more miles (10+ km)
Ceiling: 3400 feet AGL
Clouds: overcast cloud deck at 3400 feet AGL
Weather: no significant weather observed at this time

METAR text: VVCI 201300Z 11003KT 9999 OVC031 21/19 Q1018 NOSIG
Conditions at: VVCI (CAT VI , VN) observed 1300 UTC 20 January 2019
Temperature: 21.0°C (70°F)
Dewpoint: 19.0°C (66°F) [RH = 88%]
Pressure (altimeter): 30.06 inches Hg (1018.0 mb)
Winds: from the ESE (110 degrees) at 3 MPH (3 knots; 1.5 m/s)
Visibility: 6 or more miles (10+ km)
Ceiling: 3100 feet AGL
Clouds: overcast cloud deck at 3100 feet AGL
Weather: no significant weather observed at this time

METAR text: VVCI 201230Z 10004KT 9999 OVC030 21/19 Q1018 NOSIG
Conditions at: VVCI (CAT VI , VN) observed 1230 UTC 20 January 2019
Temperature: 21.0°C (70°F)
Dewpoint: 19.0°C (66°F) [RH = 88%]
Pressure (altimeter): 30.06 inches Hg (1018.0 mb)
Winds: from the E (100 degrees) at 5 MPH (4 knots; 2.1 m/s)
Visibility: 6 or more miles (10+ km)
Ceiling: 3000 feet AGL
Clouds: overcast cloud deck at 3000 feet AGL
Weather: no significant weather observed at this time

METAR text: VVCI 201200Z 13006KT 9999 SCT013 BKN027 21/20 Q1017 NOSIG
Conditions at: VVCI (CAT VI , VN) observed 1200 UTC 20 January 2019
Temperature: 21.0°C (70°F)
Dewpoint: 20.0°C (68°F) [RH = 94%]
Pressure (altimeter): 30.03 inches Hg (1017.0 mb)
Winds: from the SE (130 degrees) at 7 MPH (6 knots; 3.1 m/s)
Visibility: 6 or more miles (10+ km)
Ceiling: 2700 feet AGL
Clouds: scattered clouds at 1300 feet AGL
broken clouds at 2700 feet AGL
Weather: no significant weather observed at this time

METAR text: VVCI 201130Z 12006KT 9999 SCT013 BKN027 21/20 Q1017 NOSIG
Conditions at: VVCI (CAT VI , VN) observed 1130 UTC 20 January 2019
Temperature: 21.0°C (70°F)
Dewpoint: 20.0°C (68°F) [RH = 94%]
Pressure (altimeter): 30.03 inches Hg (1017.0 mb)
Winds: from the ESE (120 degrees) at 7 MPH (6 knots; 3.1 m/s)
Visibility: 6 or more miles (10+ km)
Ceiling: 2700 feet AGL
Clouds: scattered clouds at 1300 feet AGL
broken clouds at 2700 feet AGL
Weather: no significant weather observed at this time

METAR text: VVCI 201100Z 15005KT 9000 SCT019 BKN022 21/20 Q1016 NOSIG
Conditions at: VVCI (CAT VI , VN) observed 1100 UTC 20 January 2019
Temperature: 21.0°C (70°F)
Dewpoint: 20.0°C (68°F) [RH = 94%]
Pressure (altimeter): 30.00 inches Hg (1016.0 mb)
Winds: from the SSE (150 degrees) at 6 MPH (5 knots; 2.6 m/s)
Visibility: 6 miles ( 9 km)
Ceiling: 2200 feet AGL
Clouds: scattered clouds at 1900 feet AGL
broken clouds at 2200 feet AGL
Weather: no significant weather observed at this time

METAR text: VVCI 201030Z 13006KT 9000 BKN019 21/20 Q1016 NOSIG
Conditions at: VVCI (CAT VI , VN) observed 1030 UTC 20 January 2019
Temperature: 21.0°C (70°F)
Dewpoint: 20.0°C (68°F) [RH = 94%]
Pressure (altimeter): 30.00 inches Hg (1016.0 mb)
Winds: from the SE (130 degrees) at 7 MPH (6 knots; 3.1 m/s)
Visibility: 6 miles ( 9 km)
Ceiling: 1900 feet AGL
Clouds: broken clouds at 1900 feet AGL
Weather: no significant weather observed at this time

METAR text: VVCI 201000Z 14005KT CAVOK 21/20 Q1016 NOSIG
Conditions at: VVCI (CAT VI , VN) observed 1000 UTC 20 January 2019
Temperature: 21.0°C (70°F)
Dewpoint: 20.0°C (68°F) [RH = 94%]
Pressure (altimeter): 30.00 inches Hg (1016.0 mb)
Winds: from the SE (140 degrees) at 6 MPH (5 knots; 2.6 m/s)
Visibility: 6 or more miles (10+ km)
Ceiling: ceiling and visibility are OK
Clouds: unknown
Weather: no significant weather observed at this time

METAR text: VVCI 200930Z 14006KT CAVOK 22/20 Q1016 NOSIG
Conditions at: VVCI (CAT VI , VN) observed 0930 UTC 20 January 2019
Temperature: 22.0°C (72°F)
Dewpoint: 20.0°C (68°F) [RH = 88%]
Pressure (altimeter): 30.00 inches Hg (1016.0 mb)
Winds: from the SE (140 degrees) at 7 MPH (6 knots; 3.1 m/s)
Visibility: 6 or more miles (10+ km)
Ceiling: ceiling and visibility are OK
Clouds: unknown
Weather: no significant weather observed at this time

METAR text: VVCI 200900Z 14005KT 9999 FEW018 22/20 Q1015 NOSIG
Conditions at: VVCI (CAT VI , VN) observed 0900 UTC 20 January 2019
Temperature: 22.0°C (72°F)
Dewpoint: 20.0°C (68°F) [RH = 88%]
Pressure (altimeter): 29.97 inches Hg (1015.0 mb)
Winds: from the SE (140 degrees) at 6 MPH (5 knots; 2.6 m/s)
Visibility: 6 or more miles (10+ km)
Ceiling: at least 12,000 feet AGL
Clouds: few clouds at 1800 feet AGL
Weather: no significant weather observed at this time

METAR text: VVCI 200830Z 16005KT 9999 FEW016 23/19 Q1015 NOSIG
Conditions at: VVCI (CAT VI , VN) observed 0830 UTC 20 January 2019
Temperature: 23.0°C (73°F)
Dewpoint: 19.0°C (66°F) [RH = 78%]
Pressure (altimeter): 29.97 inches Hg (1015.0 mb)
Winds: from the SSE (160 degrees) at 6 MPH (5 knots; 2.6 m/s)
Visibility: 6 or more miles (10+ km)
Ceiling: at least 12,000 feet AGL
Clouds: few clouds at 1600 feet AGL
Weather: no significant weather observed at this time

METAR text: VVCI 200730Z 17003KT 9999 FEW015 SCT020 23/20 Q1016 NOSIG
Conditions at: VVCI (CAT VI , VN) observed 0730 UTC 20 January 2019
Temperature: 23.0°C (73°F)
Dewpoint: 20.0°C (68°F) [RH = 83%]
Pressure (altimeter): 30.00 inches Hg (1016.0 mb)
Winds: from the S (170 degrees) at 3 MPH (3 knots; 1.5 m/s)
Visibility: 6 or more miles (10+ km)
Ceiling: at least 12,000 feet AGL
Clouds: few clouds at 1500 feet AGL
scattered clouds at 2000 feet AGL
Weather: no significant weather observed at this time

METAR text: VVCI 200700Z 17004KT 130V190 9999 SCT015 23/19 Q1016 NOSIG
Conditions at: VVCI (CAT VI , VN) observed 0700 UTC 20 January 2019
Temperature: 23.0°C (73°F)
Dewpoint: 19.0°C (66°F) [RH = 78%]
Pressure (altimeter): 30.00 inches Hg (1016.0 mb)
Winds: from the S (170 degrees) at 5 MPH (4 knots; 2.1 m/s)
Visibility: 6 or more miles (10+ km)
Ceiling: at least 12,000 feet AGL
Clouds: scattered clouds at 1500 feet AGL
Weather: no significant weather observed at this time

METAR text: VVCI 200630Z VRB02KT CAVOK 23/19 Q1017 NOSIG
Conditions at: VVCI (CAT VI , VN) observed 0630 UTC 20 January 2019
Temperature: 23.0°C (73°F)
Dewpoint: 19.0°C (66°F) [RH = 78%]
Pressure (altimeter): 30.03 inches Hg (1017.0 mb)
Winds: variable direction winds at 2 MPH (2 knots; 1.0 m/s)
Visibility: 6 or more miles (10+ km)
Ceiling: ceiling and visibility are OK
Clouds: unknown
Weather: no significant weather observed at this time

METAR text: VVCI 200600Z 10003KT 020V140 9999 FEW013 23/20 Q1017 NOSIG
Conditions at: VVCI (CAT VI , VN) observed 0600 UTC 20 January 2019
Temperature: 23.0°C (73°F)
Dewpoint: 20.0°C (68°F) [RH = 83%]
Pressure (altimeter): 30.03 inches Hg (1017.0 mb)
Winds: from the E (100 degrees) at 3 MPH (3 knots; 1.5 m/s)
Visibility: 6 or more miles (10+ km)
Ceiling: at least 12,000 feet AGL
Clouds: few clouds at 1300 feet AGL
Weather: no significant weather observed at this time

METAR text: VVCI 200530Z VRB03KT 9999 FEW013 22/19 Q1017 NOSIG
Conditions at: VVCI (CAT VI , VN) observed 0530 UTC 20 January 2019
Temperature: 22.0°C (72°F)
Dewpoint: 19.0°C (66°F) [RH = 83%]
Pressure (altimeter): 30.03 inches Hg (1017.0 mb)
Winds: variable direction winds at 3 MPH (3 knots; 1.5 m/s)
Visibility: 6 or more miles (10+ km)
Ceiling: at least 12,000 feet AGL
Clouds: few clouds at 1300 feet AGL
Weather: no significant weather observed at this time

METAR text: VVCI 200500Z 06004KT 020V090 9999 FEW011 BKN046 22/19 Q1018 NOSIG
Conditions at: VVCI (CAT VI , VN) observed 0500 UTC 20 January 2019
Temperature: 22.0°C (72°F)
Dewpoint: 19.0°C (66°F) [RH = 83%]
Pressure (altimeter): 30.06 inches Hg (1018.0 mb)
Winds: from the ENE (60 degrees) at 5 MPH (4 knots; 2.1 m/s)
Visibility: 6 or more miles (10+ km)
Ceiling: 4600 feet AGL
Clouds: few clouds at 1100 feet AGL
broken clouds at 4600 feet AGL
Weather: no significant weather observed at this time

METAR text: VVCI 200430Z 06003KT 010V100 9000 FEW011 BKN046 22/19 Q1019 NOSIG
Conditions at: VVCI (CAT VI , VN) observed 0430 UTC 20 January 2019
Temperature: 22.0°C (72°F)
Dewpoint: 19.0°C (66°F) [RH = 83%]
Pressure (altimeter): 30.09 inches Hg (1019.0 mb)
Winds: from the ENE (60 degrees) at 3 MPH (3 knots; 1.5 m/s)
Visibility: 6 miles ( 9 km)
Ceiling: 4600 feet AGL
Clouds: few clouds at 1100 feet AGL
broken clouds at 4600 feet AGL
Weather: no significant weather observed at this time

METAR text: VVCI 200400Z 07004KT 030V130 7000 FEW010 OVC044 22/19 Q1019 NOSIG
Conditions at: VVCI (CAT VI , VN) observed 0400 UTC 20 January 2019
Temperature: 22.0°C (72°F)
Dewpoint: 19.0°C (66°F) [RH = 83%]
Pressure (altimeter): 30.09 inches Hg (1019.0 mb)
Winds: from the ENE (70 degrees) at 5 MPH (4 knots; 2.1 m/s)
Visibility: 4 miles ( 7 km)
Ceiling: 4400 feet AGL
Clouds: few clouds at 1000 feet AGL
overcast cloud deck at 4400 feet AGL
Weather: no significant weather observed at this time

METAR text: VVCI 200330Z 07006KT 6000 SCT009 BKN042 21/20 Q1019 NOSIG
Conditions at: VVCI (CAT VI , VN) observed 0330 UTC 20 January 2019
Temperature: 21.0°C (70°F)
Dewpoint: 20.0°C (68°F) [RH = 94%]
Pressure (altimeter): 30.09 inches Hg (1019.0 mb)
Winds: from the ENE (70 degrees) at 7 MPH (6 knots; 3.1 m/s)
Visibility: 4 miles ( 6 km)
Ceiling: 4200 feet AGL
Clouds: scattered clouds at 900 feet AGL
broken clouds at 4200 feet AGL
Weather: no significant weather observed at this time

METAR text: VVCI 200300Z 07007KT 6000 BKN008 BKN041 21/20 Q1019 NOSIG
Conditions at: VVCI (CAT VI , VN) observed 0300 UTC 20 January 2019
Temperature: 21.0°C (70°F)
Dewpoint: 20.0°C (68°F) [RH = 94%]
Pressure (altimeter): 30.09 inches Hg (1019.0 mb)
Winds: from the ENE (70 degrees) at 8 MPH (7 knots; 3.6 m/s)
Visibility: 4 miles ( 6 km)
Ceiling: 800 feet AGL
Clouds: broken clouds at 800 feet AGL
broken clouds at 4100 feet AGL
Weather: no significant weather observed at this time

METAR text: VVCI 200230Z 07007KT 4800 BR SCT006 OVC041 21/20 Q1019 BECMG 6000 NSW
Conditions at: VVCI (CAT VI , VN) observed 0230 UTC 20 January 2019
Temperature: 21.0°C (70°F)
Dewpoint: 20.0°C (68°F) [RH = 94%]
Pressure (altimeter): 30.09 inches Hg (1019.0 mb)
Winds: from the ENE (70 degrees) at 8 MPH (7 knots; 3.6 m/s)
Visibility: 2.98 miles (4.80 km)
Ceiling: 4100 feet AGL
Clouds: scattered clouds at 600 feet AGL
overcast cloud deck at 4100 feet AGL
Weather: BR  (mist)

METAR text: VVCI 200200Z 06006KT 3800 BR BKN005 BKN040 20/19 Q1019 NOSIG
Conditions at: VVCI (CAT VI , VN) observed 0200 UTC 20 January 2019
Temperature: 20.0°C (68°F)
Dewpoint: 19.0°C (66°F) [RH = 94%]
Pressure (altimeter): 30.09 inches Hg (1019.0 mb)
Winds: from the ENE (60 degrees) at 7 MPH (6 knots; 3.1 m/s)
Visibility: 2.36 miles (3.80 km)
Ceiling: 500 feet AGL
Clouds: broken clouds at 500 feet AGL
broken clouds at 4000 feet AGL
Weather: BR  (mist)

METAR text: VVCI 200130Z 07007KT 4200 BR SCT006 BKN010 20/19 Q1018 NOSIG
Conditions at: VVCI (CAT VI , VN) observed 0130 UTC 20 January 2019
Temperature: 20.0°C (68°F)
Dewpoint: 19.0°C (66°F) [RH = 94%]
Pressure (altimeter): 30.06 inches Hg (1018.0 mb)
Winds: from the ENE (70 degrees) at 8 MPH (7 knots; 3.6 m/s)
Visibility: 2.61 miles (4.20 km)
Ceiling: 1000 feet AGL
Clouds: scattered clouds at 600 feet AGL
broken clouds at 1000 feet AGL
Weather: BR  (mist)

METAR text: VVCI 200100Z 07007KT 4600 BR FEW005 SCT008 20/19 Q1018 NOSIG
Conditions at: VVCI (CAT VI , VN) observed 0100 UTC 20 January 2019
Temperature: 20.0°C (68°F)
Dewpoint: 19.0°C (66°F) [RH = 94%]
Pressure (altimeter): 30.06 inches Hg (1018.0 mb)
Winds: from the ENE (70 degrees) at 8 MPH (7 knots; 3.6 m/s)
Visibility: 2.86 miles (4.60 km)
Ceiling: at least 12,000 feet AGL
Clouds: few clouds at 500 feet AGL
scattered clouds at 800 feet AGL
Weather: BR  (mist)

METAR text: VVCI 200030Z 04003KT 3000 BR FEW024 SCT039 BKN049 19/19 Q1018 NOSIG
Conditions at: VVCI (CAT VI , VN) observed 0030 UTC 20 January 2019
Temperature: 19.0°C (66°F)
Dewpoint: 19.0°C (66°F) [RH = 100%]
Pressure (altimeter): 30.06 inches Hg (1018.0 mb)
Winds: from the NE (40 degrees) at 3 MPH (3 knots; 1.5 m/s)
Visibility: 1.86 miles (2.99 km)
Ceiling: 4900 feet AGL
Clouds: few clouds at 2400 feet AGL
scattered clouds at 3900 feet AGL
broken clouds at 4900 feet AGL
Weather: BR  (mist)

METAR text: VVCI 200000Z 05003KT 2900 BR FEW031 BKN040 19/19 Q1018 NOSIG
Conditions at: VVCI (CAT VI , VN) observed 0000 UTC 20 January 2019
Temperature: 19.0°C (66°F)
Dewpoint: 19.0°C (66°F) [RH = 100%]
Pressure (altimeter): 30.06 inches Hg (1018.0 mb)
Winds: from the NE (50 degrees) at 3 MPH (3 knots; 1.5 m/s)
Visibility: 1.80 miles (2.90 km)
Ceiling: 4000 feet AGL
Clouds: few clouds at 3100 feet AGL
broken clouds at 4000 feet AGL
Weather: BR  (mist)

METAR text: VVCI 192330Z 01003KT 4100 BR SCT010 BKN040 19/19 Q1017 NOSIG
Conditions at: VVCI (CAT VI , VN) observed 2330 UTC 19 January 2019
Temperature: 19.0°C (66°F)
Dewpoint: 19.0°C (66°F) [RH = 100%]
Pressure (altimeter): 30.03 inches Hg (1017.0 mb)
Winds: from the N (10 degrees) at 3 MPH (3 knots; 1.5 m/s)
Visibility: 2.55 miles (4.10 km)
Ceiling: 4000 feet AGL
Clouds: scattered clouds at 1000 feet AGL
broken clouds at 4000 feet AGL
Weather: BR  (mist)

METAR text: VVCI 192300Z 04003KT 4100 BR BKN006 19/19 Q1017 NOSIG
Conditions at: VVCI (CAT VI , VN) observed 2300 UTC 19 January 2019
Temperature: 19.0°C (66°F)
Dewpoint: 19.0°C (66°F) [RH = 100%]
Pressure (altimeter): 30.03 inches Hg (1017.0 mb)
Winds: from the NE (40 degrees) at 3 MPH (3 knots; 1.5 m/s)
Visibility: 2.55 miles (4.10 km)
Ceiling: 600 feet AGL
Clouds: broken clouds at 600 feet AGL
Weather: BR  (mist)

METAR text: VVCI 192230Z 04003KT 360V060 4400 BR BKN006 19/19 Q1017 NOSIG
Conditions at: VVCI (CAT VI , VN) observed 2230 UTC 19 January 2019
Temperature: 19.0°C (66°F)
Dewpoint: 19.0°C (66°F) [RH = 100%]
Pressure (altimeter): 30.03 inches Hg (1017.0 mb)
Winds: from the NE (40 degrees) at 3 MPH (3 knots; 1.5 m/s)
Visibility: 2.73 miles (4.39 km)
Ceiling: 600 feet AGL
Clouds: broken clouds at 600 feet AGL
Weather: BR  (mist)

METAR text: VVCI 192200Z 05003KT 4500 BR BKN006 19/19 Q1017 NOSIG
Conditions at: VVCI (CAT VI , VN) observed 2200 UTC 19 January 2019
Temperature: 19.0°C (66°F)
Dewpoint: 19.0°C (66°F) [RH = 100%]
Pressure (altimeter): 30.03 inches Hg (1017.0 mb)
Winds: from the NE (50 degrees) at 3 MPH (3 knots; 1.5 m/s)
Visibility: 2.80 miles (4.51 km)
Ceiling: 600 feet AGL
Clouds: broken clouds at 600 feet AGL
Weather: BR  (mist)

METAR text: VVCI 192130Z VRB02KT 4200 BR BKN006 19/19 Q1017 NOSIG
Conditions at: VVCI (CAT VI , VN) observed 2130 UTC 19 January 2019
Temperature: 19.0°C (66°F)
Dewpoint: 19.0°C (66°F) [RH = 100%]
Pressure (altimeter): 30.03 inches Hg (1017.0 mb)
Winds: variable direction winds at 2 MPH (2 knots; 1.0 m/s)
Visibility: 2.61 miles (4.20 km)
Ceiling: 600 feet AGL
Clouds: broken clouds at 600 feet AGL
Weather: BR  (mist)

METAR text: VVCI 192100Z VRB02KT 4100 BR BKN006 19/19 Q1017 NOSIG
Conditions at: VVCI (CAT VI , VN) observed 2100 UTC 19 January 2019
Temperature: 19.0°C (66°F)
Dewpoint: 19.0°C (66°F) [RH = 100%]
Pressure (altimeter): 30.03 inches Hg (1017.0 mb)
Winds: variable direction winds at 2 MPH (2 knots; 1.0 m/s)
Visibility: 2.55 miles (4.10 km)
Ceiling: 600 feet AGL
Clouds: broken clouds at 600 feet AGL
Weather: BR  (mist)

METAR text: VVCI 192030Z 35003KT 4200 BR BKN006 19/19 Q1017 NOSIG
Conditions at: VVCI (CAT VI , VN) observed 2030 UTC 19 January 2019
Temperature: 19.0°C (66°F)
Dewpoint: 19.0°C (66°F) [RH = 100%]
Pressure (altimeter): 30.03 inches Hg (1017.0 mb)
Winds: from the N (350 degrees) at 3 MPH (3 knots; 1.5 m/s)
Visibility: 2.61 miles (4.20 km)
Ceiling: 600 feet AGL
Clouds: broken clouds at 600 feet AGL
Weather: BR  (mist)

METAR text: VVCI 192000Z 35002KT 4300 BR SCT005 BKN007 19/19 Q1017 NOSIG
Conditions at: VVCI (CAT VI , VN) observed 2000 UTC 19 January 2019
Temperature: 19.0°C (66°F)
Dewpoint: 19.0°C (66°F) [RH = 100%]
Pressure (altimeter): 30.03 inches Hg (1017.0 mb)
Winds: from the N (350 degrees) at 2 MPH (2 knots; 1.0 m/s)
Visibility: 2.67 miles (4.30 km)
Ceiling: 700 feet AGL
Clouds: scattered clouds at 500 feet AGL
broken clouds at 700 feet AGL
Weather: BR  (mist)

METAR text: VVCI 191930Z VRB02KT 5000 BR BKN007 BKN020 19/19 Q1017 NOSIG
Conditions at: VVCI (CAT VI , VN) observed 1930 UTC 19 January 2019
Temperature: 19.0°C (66°F)
Dewpoint: 19.0°C (66°F) [RH = 100%]
Pressure (altimeter): 30.03 inches Hg (1017.0 mb)
Winds: variable direction winds at 2 MPH (2 knots; 1.0 m/s)
Visibility: 3 miles ( 5 km)
Ceiling: 700 feet AGL
Clouds: broken clouds at 700 feet AGL
broken clouds at 2000 feet AGL
Weather: BR  (mist)

METAR text: VVCI 191900Z 05002KT 5000 BR BKN007 BKN020 19/19 Q1017 NOSIG
Conditions at: VVCI (CAT VI , VN) observed 1900 UTC 19 January 2019
Temperature: 19.0°C (66°F)
Dewpoint: 19.0°C (66°F) [RH = 100%]
Pressure (altimeter): 30.03 inches Hg (1017.0 mb)
Winds: from the NE (50 degrees) at 2 MPH (2 knots; 1.0 m/s)
Visibility: 3 miles ( 5 km)
Ceiling: 700 feet AGL
Clouds: broken clouds at 700 feet AGL
broken clouds at 2000 feet AGL
Weather: BR  (mist)

METAR text: VVCI 191830Z 31001KT 4500 BR BKN006 19/19 Q1017 NOSIG
Conditions at: VVCI (CAT VI , VN) observed 1830 UTC 19 January 2019
Temperature: 19.0°C (66°F)
Dewpoint: 19.0°C (66°F) [RH = 100%]
Pressure (altimeter): 30.03 inches Hg (1017.0 mb)
Winds: from the NW (310 degrees) at 1 MPH (1 knots; 0.5 m/s)
Visibility: 2.80 miles (4.51 km)
Ceiling: 600 feet AGL
Clouds: broken clouds at 600 feet AGL
Weather: BR  (mist)

METAR text: VVCI 191800Z 31002KT 4400 BR BKN006 19/19 Q1017 NOSIG
Conditions at: VVCI (CAT VI , VN) observed 1800 UTC 19 January 2019
Temperature: 19.0°C (66°F)
Dewpoint: 19.0°C (66°F) [RH = 100%]
Pressure (altimeter): 30.03 inches Hg (1017.0 mb)
Winds: from the NW (310 degrees) at 2 MPH (2 knots; 1.0 m/s)
Visibility: 2.73 miles (4.39 km)
Ceiling: 600 feet AGL
Clouds: broken clouds at 600 feet AGL
Weather: BR  (mist)

METAR text: VVCI 191730Z 34001KT 3800 BR SCT006 BKN049 18/18 Q1017 NOSIG
Conditions at: VVCI (CAT VI , VN) observed 1730 UTC 19 January 2019
Temperature: 18.0°C (64°F)
Dewpoint: 18.0°C (64°F) [RH = 100%]
Pressure (altimeter): 30.03 inches Hg (1017.0 mb)
Winds: from the NNW (340 degrees) at 1 MPH (1 knots; 0.5 m/s)
Visibility: 2.36 miles (3.80 km)
Ceiling: 4900 feet AGL
Clouds: scattered clouds at 600 feet AGL
broken clouds at 4900 feet AGL
Weather: BR  (mist)

Forecast for: VVCI (CAT VI , VN)
Text: TAF VVCI 202300Z 2100/2124 05008KT 8000 FEW015 BKN040
Forecast period: 0000 UTC 21 January 2019 to 0000 UTC 22 January 2019
Forecast type: FROM: standard forecast or significant change
Winds: from the NE (50 degrees) at 9 MPH (8 knots; 4.1 m/s)
Visibility: 5 miles (8 km)
Ceiling: 4000 feet AGL
Clouds: few clouds at 1500 feet AGL
broken clouds at 4000 feet AGL
Weather: no significant weather forecast for this period